sensor_id;sensor_type;location;lat;lon;timestamp;pressure;altitude;pressure_sealevel;temperature;humidity
47967;BME280;33733;52.456;13.620;2024-01-15T00:00:35;99102.94;;;2.49;74.97
47967;BME280;33733;52.456;13.620;2024-01-15T00:03:03;99105.97;;;2.69;75.37
47967;BME280;33733;52.456;13.620;2024-01-15T00:05:31;99091.03;;;2.59;75.27
47967;BME280;33733;52.456;13.620;2024-01-15T00:07:58;99076.50;;;2.69;74.42
47967;BME280;33733;52.456;13.620;2024-01-15T00:10:25;99080.50;;;2.60;74.52
47967;BME280;33733;52.456;13.620;2024-01-15T00:12:52;99078.47;;;2.51;75.47
47967;BME280;33733;52.456;13.620;2024-01-15T00:15:19;99076.44;;;2.56;75.20
47967;BME280;33733;52.456;13.620;2024-01-15T00:17:47;99072.56;;;2.76;74.72
47967;BME280;33733;52.456;13.620;2024-01-15T00:20:14;99072.81;;;2.86;75.16
47967;BME280;33733;52.456;13.620;2024-01-15T00:22:41;99071.00;;;2.47;75.94
47967;BME280;33733;52.456;13.620;2024-01-15T00:25:08;99060.16;;;2.26;76.70
47967;BME280;33733;52.456;13.620;2024-01-15T00:27:36;99057.28;;;2.30;77.21
47967;BME280;33733;52.456;13.620;2024-01-15T00:30:03;99044.44;;;2.42;76.46
47967;BME280;33733;52.456;13.620;2024-01-15T00:32:31;99051.59;;;2.38;76.41
47967;BME280;33733;52.456;13.620;2024-01-15T00:34:58;99038.13;;;2.31;76.91
47967;BME280;33733;52.456;13.620;2024-01-15T00:37:26;99023.63;;;2.42;76.76
47967;BME280;33733;52.456;13.620;2024-01-15T00:39:53;99033.03;;;2.30;76.97
47967;BME280;33733;52.456;13.620;2024-01-15T00:42:20;99026.00;;;2.45;76.63
47967;BME280;33733;52.456;13.620;2024-01-15T00:44:47;99019.75;;;2.20;76.79
47967;BME280;33733;52.456;13.620;2024-01-15T00:47:14;99011.81;;;2.36;76.48
47967;BME280;33733;52.456;13.620;2024-01-15T00:49:41;99010.41;;;2.18;76.35
47967;BME280;33733;52.456;13.620;2024-01-15T00:52:08;99017.44;;;2.30;76.66
47967;BME280;33733;52.456;13.620;2024-01-15T00:54:35;99011.75;;;2.23;76.49
47967;BME280;33733;52.456;13.620;2024-01-15T00:57:03;98994.59;;;2.21;76.50
47967;BME280;33733;52.456;13.620;2024-01-15T00:59:30;99008.91;;;2.14;76.31
47967;BME280;33733;52.456;13.620;2024-01-15T01:01:57;98999.16;;;2.17;76.78
47967;BME280;33733;52.456;13.620;2024-01-15T01:04:25;99005.41;;;2.42;75.82
47967;BME280;33733;52.456;13.620;2024-01-15T01:06:52;98987.69;;;2.34;75.52
47967;BME280;33733;52.456;13.620;2024-01-15T01:09:19;98988.06;;;2.28;75.78
47967;BME280;33733;52.456;13.620;2024-01-15T01:11:46;98982.66;;;2.31;76.35
47967;BME280;33733;52.456;13.620;2024-01-15T01:14:14;98982.72;;;2.44;75.76
47967;BME280;33733;52.456;13.620;2024-01-15T01:16:41;98988.19;;;2.26;76.02
47967;BME280;33733;52.456;13.620;2024-01-15T01:19:08;98974.84;;;2.18;76.83
47967;BME280;33733;52.456;13.620;2024-01-15T01:21:36;98984.59;;;2.15;77.26
47967;BME280;33733;52.456;13.620;2024-01-15T01:24:03;98984.63;;;2.27;77.09
47967;BME280;33733;52.456;13.620;2024-01-15T01:26:30;98976.59;;;2.18;76.97
47967;BME280;33733;52.456;13.620;2024-01-15T01:28:58;98989.44;;;2.33;76.10
47967;BME280;33733;52.456;13.620;2024-01-15T01:31:26;98991.34;;;2.44;76.98
47967;BME280;33733;52.456;13.620;2024-01-15T01:33:53;98989.75;;;2.29;77.35
47967;BME280;33733;52.456;13.620;2024-01-15T01:36:20;98990.94;;;2.23;77.23
47967;BME280;33733;52.456;13.620;2024-01-15T01:38:47;98994.75;;;2.59;76.88
47967;BME280;33733;52.456;13.620;2024-01-15T01:41:14;98990.16;;;2.89;75.85
47967;BME280;33733;52.456;13.620;2024-01-15T01:43:43;98987.66;;;3.00;75.19
47967;BME280;33733;52.456;13.620;2024-01-15T01:46:10;98990.16;;;3.02;74.55
47967;BME280;33733;52.456;13.620;2024-01-15T01:48:39;98996.84;;;3.06;74.87
47967;BME280;33733;52.456;13.620;2024-01-15T01:51:07;98988.34;;;2.77;75.00
47967;BME280;33733;52.456;13.620;2024-01-15T01:53:36;98986.44;;;2.66;75.32
47967;BME280;33733;52.456;13.620;2024-01-15T01:56:05;98978.22;;;2.72;75.47
47967;BME280;33733;52.456;13.620;2024-01-15T01:58:33;98980.25;;;2.81;75.62
47967;BME280;33733;52.456;13.620;2024-01-15T02:01:00;98965.66;;;2.92;74.91
47967;BME280;33733;52.456;13.620;2024-01-15T02:03:29;98967.44;;;2.52;76.20
47967;BME280;33733;52.456;13.620;2024-01-15T02:06:01;98983.69;;;2.82;76.17
47967;BME280;33733;52.456;13.620;2024-01-15T02:08:29;98982.78;;;3.08;74.88
47967;BME280;33733;52.456;13.620;2024-01-15T02:10:56;98983.69;;;3.07;75.19
47967;BME280;33733;52.456;13.620;2024-01-15T02:13:23;98981.63;;;3.12;74.59
47967;BME280;33733;52.456;13.620;2024-01-15T02:15:50;98976.00;;;3.06;74.72
47967;BME280;33733;52.456;13.620;2024-01-15T02:18:18;98963.81;;;3.06;73.85
47967;BME280;33733;52.456;13.620;2024-01-15T02:20:45;98960.00;;;2.72;74.72
47967;BME280;33733;52.456;13.620;2024-01-15T02:23:13;98960.03;;;2.85;73.56
47967;BME280;33733;52.456;13.620;2024-01-15T02:25:46;98967.13;;;2.96;73.60
47967;BME280;33733;52.456;13.620;2024-01-15T02:28:16;98964.28;;;2.73;73.75
47967;BME280;33733;52.456;13.620;2024-01-15T02:30:44;98966.59;;;2.51;73.70
47967;BME280;33733;52.456;13.620;2024-01-15T02:33:12;98970.69;;;2.55;74.60
47967;BME280;33733;52.456;13.620;2024-01-15T02:35:40;98967.31;;;2.41;74.14
47967;BME280;33733;52.456;13.620;2024-01-15T02:38:08;98962.09;;;2.41;74.32
47967;BME280;33733;52.456;13.620;2024-01-15T02:40:35;98962.06;;;2.28;74.30
47967;BME280;33733;52.456;13.620;2024-01-15T02:43:03;98970.06;;;2.52;74.04
47967;BME280;33733;52.456;13.620;2024-01-15T02:45:30;98968.06;;;2.82;72.90
47967;BME280;33733;52.456;13.620;2024-01-15T02:47:58;98953.94;;;2.59;72.69
47967;BME280;33733;52.456;13.620;2024-01-15T02:50:25;98947.69;;;2.49;73.42
47967;BME280;33733;52.456;13.620;2024-01-15T02:52:52;98940.13;;;2.32;73.64
47967;BME280;33733;52.456;13.620;2024-01-15T02:55:20;98943.28;;;2.37;73.15
47967;BME280;33733;52.456;13.620;2024-01-15T02:57:47;98941.38;;;2.26;73.03
47967;BME280;33733;52.456;13.620;2024-01-15T03:00:14;98942.44;;;2.36;73.68
47967;BME280;33733;52.456;13.620;2024-01-15T03:02:44;98948.56;;;2.09;73.38
47967;BME280;33733;52.456;13.620;2024-01-15T03:05:14;98949.78;;;2.03;73.52
47967;BME280;33733;52.456;13.620;2024-01-15T03:07:42;98950.53;;;2.32;73.31
47967;BME280;33733;52.456;13.620;2024-01-15T03:10:10;98955.88;;;2.16;73.17
47967;BME280;33733;52.456;13.620;2024-01-15T03:12:37;98949.69;;;2.31;72.86
47967;BME280;33733;52.456;13.620;2024-01-15T03:15:05;98956.88;;;2.55;72.45
47967;BME280;33733;52.456;13.620;2024-01-15T03:17:32;98947.47;;;2.52;72.49
47967;BME280;33733;52.456;13.620;2024-01-15T03:20:00;98946.47;;;2.55;72.04
47967;BME280;33733;52.456;13.620;2024-01-15T03:22:27;98932.09;;;2.22;72.21
47967;BME280;33733;52.456;13.620;2024-01-15T03:24:54;98933.72;;;2.11;72.93
47967;BME280;33733;52.456;13.620;2024-01-15T03:27:22;98935.16;;;1.88;74.09
47967;BME280;33733;52.456;13.620;2024-01-15T03:29:49;98936.34;;;1.97;73.50
47967;BME280;33733;52.456;13.620;2024-01-15T03:32:16;98928.66;;;2.22;73.05
47967;BME280;33733;52.456;13.620;2024-01-15T03:34:43;98921.28;;;2.28;72.13
47967;BME280;33733;52.456;13.620;2024-01-15T03:37:11;98924.81;;;2.27;71.89
47967;BME280;33733;52.456;13.620;2024-01-15T03:39:38;98926.78;;;2.24;72.41
47967;BME280;33733;52.456;13.620;2024-01-15T03:42:06;98923.94;;;2.14;72.76
47967;BME280;33733;52.456;13.620;2024-01-15T03:44:33;98926.25;;;2.19;72.11
47967;BME280;33733;52.456;13.620;2024-01-15T03:47:00;98921.84;;;2.07;71.81
47967;BME280;33733;52.456;13.620;2024-01-15T03:49:27;98923.78;;;2.03;71.92
47967;BME280;33733;52.456;13.620;2024-01-15T03:51:55;98913.94;;;2.08;72.41
47967;BME280;33733;52.456;13.620;2024-01-15T03:54:22;98920.59;;;2.12;71.89
47967;BME280;33733;52.456;13.620;2024-01-15T03:56:49;98912.81;;;2.12;71.63
47967;BME280;33733;52.456;13.620;2024-01-15T03:59:16;98906.72;;;2.26;71.76
47967;BME280;33733;52.456;13.620;2024-01-15T04:01:50;98900.75;;;2.51;70.49
47967;BME280;33733;52.456;13.620;2024-01-15T04:04:20;98901.19;;;2.57;70.58
47967;BME280;33733;52.456;13.620;2024-01-15T04:06:47;98894.56;;;2.39;70.38
47967;BME280;33733;52.456;13.620;2024-01-15T04:09:15;98882.53;;;2.38;71.52
47967;BME280;33733;52.456;13.620;2024-01-15T04:11:43;98879.50;;;2.44;70.99
47967;BME280;33733;52.456;13.620;2024-01-15T04:14:10;98874.78;;;2.24;71.53
47967;BME280;33733;52.456;13.620;2024-01-15T04:16:38;98870.84;;;2.04;71.13
47967;BME280;33733;52.456;13.620;2024-01-15T04:19:05;98868.94;;;2.20;71.50
47967;BME280;33733;52.456;13.620;2024-01-15T04:21:33;98874.34;;;2.17;71.95
47967;BME280;33733;52.456;13.620;2024-01-15T04:24:00;98864.16;;;2.27;71.58
47967;BME280;33733;52.456;13.620;2024-01-15T04:26:27;98859.75;;;2.42;71.49
47967;BME280;33733;52.456;13.620;2024-01-15T04:28:54;98865.19;;;2.24;70.82
47967;BME280;33733;52.456;13.620;2024-01-15T04:31:25;98862.00;;;2.33;70.99
47967;BME280;33733;52.456;13.620;2024-01-15T04:33:54;98870.03;;;2.43;70.78
47967;BME280;33733;52.456;13.620;2024-01-15T04:36:21;98859.44;;;2.07;70.68
47967;BME280;33733;52.456;13.620;2024-01-15T04:38:48;98854.28;;;2.32;71.47
47967;BME280;33733;52.456;13.620;2024-01-15T04:41:16;98869.75;;;2.60;70.80
47967;BME280;33733;52.456;13.620;2024-01-15T04:43:44;98859.91;;;2.26;70.73
47967;BME280;33733;52.456;13.620;2024-01-15T04:46:11;98868.66;;;2.25;71.06
47967;BME280;33733;52.456;13.620;2024-01-15T04:48:38;98868.88;;;2.47;70.14
47967;BME280;33733;52.456;13.620;2024-01-15T04:51:08;98857.25;;;2.53;70.39
47967;BME280;33733;52.456;13.620;2024-01-15T04:53:35;98844.34;;;2.39;70.45
47967;BME280;33733;52.456;13.620;2024-01-15T04:56:03;98848.81;;;2.49;70.32
47967;BME280;33733;52.456;13.620;2024-01-15T04:58:30;98838.47;;;2.35;70.24
47967;BME280;33733;52.456;13.620;2024-01-15T05:00:57;98852.13;;;2.51;69.71
47967;BME280;33733;52.456;13.620;2024-01-15T05:03:25;98832.94;;;2.14;69.90
47967;BME280;33733;52.456;13.620;2024-01-15T05:05:52;98840.47;;;2.44;69.83
47967;BME280;33733;52.456;13.620;2024-01-15T05:08:19;98851.50;;;2.48;69.92
47967;BME280;33733;52.456;13.620;2024-01-15T05:10:47;98861.22;;;2.58;68.85
47967;BME280;33733;52.456;13.620;2024-01-15T05:13:14;98846.31;;;2.48;69.17
47967;BME280;33733;52.456;13.620;2024-01-15T05:15:41;98851.53;;;2.60;68.69
47967;BME280;33733;52.456;13.620;2024-01-15T05:18:09;98846.94;;;2.64;68.99
47967;BME280;33733;52.456;13.620;2024-01-15T05:20:36;98847.78;;;2.52;68.76
47967;BME280;33733;52.456;13.620;2024-01-15T05:23:04;98847.88;;;2.38;69.38
47967;BME280;33733;52.456;13.620;2024-01-15T05:25:31;98833.72;;;2.42;69.14
47967;BME280;33733;52.456;13.620;2024-01-15T05:27:58;98835.69;;;2.38;69.53
47967;BME280;33733;52.456;13.620;2024-01-15T05:30:25;98848.22;;;2.58;69.98
47967;BME280;33733;52.456;13.620;2024-01-15T05:32:52;98851.63;;;2.71;69.60
47967;BME280;33733;52.456;13.620;2024-01-15T05:35:20;98843.19;;;2.55;70.25
47967;BME280;33733;52.456;13.620;2024-01-15T05:37:47;98842.06;;;2.59;69.80
47967;BME280;33733;52.456;13.620;2024-01-15T05:40:15;98838.53;;;2.60;70.40
47967;BME280;33733;52.456;13.620;2024-01-15T05:42:42;98846.59;;;2.43;70.68
47967;BME280;33733;52.456;13.620;2024-01-15T05:45:09;98837.66;;;2.22;71.60
47967;BME280;33733;52.456;13.620;2024-01-15T05:47:37;98822.72;;;2.11;71.54
47967;BME280;33733;52.456;13.620;2024-01-15T05:50:04;98822.44;;;2.16;71.02
47967;BME280;33733;52.456;13.620;2024-01-15T05:52:32;98826.69;;;2.17;71.71
47967;BME280;33733;52.456;13.620;2024-01-15T05:54:59;98826.22;;;2.37;71.35
47967;BME280;33733;52.456;13.620;2024-01-15T05:57:26;98820.19;;;2.36;70.57
47967;BME280;33733;52.456;13.620;2024-01-15T05:59:54;98818.81;;;2.31;70.90
47967;BME280;33733;52.456;13.620;2024-01-15T06:02:21;98813.53;;;2.32;70.92
47967;BME280;33733;52.456;13.620;2024-01-15T06:04:48;98824.66;;;2.34;70.36
47967;BME280;33733;52.456;13.620;2024-01-15T06:07:16;98825.97;;;2.27;71.43
47967;BME280;33733;52.456;13.620;2024-01-15T06:09:43;98828.28;;;2.32;72.40
47967;BME280;33733;52.456;13.620;2024-01-15T06:12:10;98834.88;;;2.38;72.58
47967;BME280;33733;52.456;13.620;2024-01-15T06:14:37;98834.13;;;2.23;73.23
47967;BME280;33733;52.456;13.620;2024-01-15T06:17:04;98832.31;;;2.23;74.29
47967;BME280;33733;52.456;13.620;2024-01-15T06:19:32;98839.66;;;2.56;73.56
47967;BME280;33733;52.456;13.620;2024-01-15T06:21:59;98837.47;;;2.38;73.09
47967;BME280;33733;52.456;13.620;2024-01-15T06:24:26;98837.28;;;2.53;73.32
47967;BME280;33733;52.456;13.620;2024-01-15T06:26:54;98836.13;;;2.57;73.23
47967;BME280;33733;52.456;13.620;2024-01-15T06:29:21;98834.75;;;2.39;72.90
47967;BME280;33733;52.456;13.620;2024-01-15T06:31:48;98822.06;;;2.34;72.84
47967;BME280;33733;52.456;13.620;2024-01-15T06:34:16;98825.06;;;2.28;72.50
47967;BME280;33733;52.456;13.620;2024-01-15T06:36:43;98838.72;;;2.45;71.24
47967;BME280;33733;52.456;13.620;2024-01-15T06:39:11;98832.06;;;2.53;71.83
47967;BME280;33733;52.456;13.620;2024-01-15T06:41:38;98838.53;;;2.60;70.58
47967;BME280;33733;52.456;13.620;2024-01-15T06:44:10;98830.63;;;2.74;71.14
47967;BME280;33733;52.456;13.620;2024-01-15T06:46:44;98832.81;;;2.43;71.58
47967;BME280;33733;52.456;13.620;2024-01-15T06:49:12;98824.34;;;2.39;72.03
47967;BME280;33733;52.456;13.620;2024-01-15T06:51:39;98825.50;;;2.60;72.36
47967;BME280;33733;52.456;13.620;2024-01-15T06:54:07;98840.41;;;2.58;71.36
47967;BME280;33733;52.456;13.620;2024-01-15T06:56:35;98843.66;;;2.74;71.05
47967;BME280;33733;52.456;13.620;2024-01-15T06:59:02;98835.94;;;2.73;71.14
47967;BME280;33733;52.456;13.620;2024-01-15T07:01:29;98837.59;;;2.74;70.97
47967;BME280;33733;52.456;13.620;2024-01-15T07:03:57;98844.38;;;2.89;70.83
47967;BME280;33733;52.456;13.620;2024-01-15T07:06:24;98830.50;;;2.63;70.58
47967;BME280;33733;52.456;13.620;2024-01-15T07:08:51;98847.38;;;2.58;70.86
47967;BME280;33733;52.456;13.620;2024-01-15T07:11:18;98831.88;;;2.69;71.07
47967;BME280;33733;52.456;13.620;2024-01-15T07:13:45;98822.72;;;2.51;70.68
47967;BME280;33733;52.456;13.620;2024-01-15T07:16:13;98830.59;;;2.49;70.73
47967;BME280;33733;52.456;13.620;2024-01-15T07:18:45;98845.00;;;2.55;70.80
47967;BME280;33733;52.456;13.620;2024-01-15T07:21:13;98830.00;;;2.58;70.86
47967;BME280;33733;52.456;13.620;2024-01-15T07:23:40;98850.91;;;2.57;71.11
47967;BME280;33733;52.456;13.620;2024-01-15T07:26:07;98833.72;;;2.42;72.07
47967;BME280;33733;52.456;13.620;2024-01-15T07:28:34;98857.06;;;2.68;70.88
47967;BME280;33733;52.456;13.620;2024-01-15T07:31:02;98852.88;;;2.53;69.94
47967;BME280;33733;52.456;13.620;2024-01-15T07:33:30;98848.63;;;2.77;70.10
47967;BME280;33733;52.456;13.620;2024-01-15T07:35:58;98853.94;;;2.76;68.73
47967;BME280;33733;52.456;13.620;2024-01-15T07:38:29;98863.00;;;2.70;68.53
47967;BME280;33733;52.456;13.620;2024-01-15T07:40:56;98867.25;;;2.84;69.31
47967;BME280;33733;52.456;13.620;2024-01-15T07:43:24;98871.22;;;2.90;68.94
47967;BME280;33733;52.456;13.620;2024-01-15T07:45:53;98884.16;;;2.78;68.69
47967;BME280;33733;52.456;13.620;2024-01-15T07:48:20;98888.94;;;2.97;69.11
47967;BME280;33733;52.456;13.620;2024-01-15T07:50:47;98888.63;;;3.02;68.06
47967;BME280;33733;52.456;13.620;2024-01-15T07:53:15;98888.94;;;3.10;67.71
47967;BME280;33733;52.456;13.620;2024-01-15T07:55:42;98881.00;;;3.24;67.10
47967;BME280;33733;52.456;13.620;2024-01-15T07:58:09;98881.53;;;3.04;67.28
47967;BME280;33733;52.456;13.620;2024-01-15T08:00:42;98876.53;;;3.13;67.18
47967;BME280;33733;52.456;13.620;2024-01-15T08:03:11;98886.50;;;3.45;66.22
47967;BME280;33733;52.456;13.620;2024-01-15T08:05:38;98890.53;;;3.61;66.04
47967;BME280;33733;52.456;13.620;2024-01-15T08:08:06;98895.03;;;3.47;66.08
47967;BME280;33733;52.456;13.620;2024-01-15T08:10:33;98901.38;;;3.55;66.01
47967;BME280;33733;52.456;13.620;2024-01-15T08:13:00;98905.69;;;3.80;65.54
47967;BME280;33733;52.456;13.620;2024-01-15T08:15:27;98898.47;;;3.35;66.21
47967;BME280;33733;52.456;13.620;2024-01-15T08:17:57;98897.25;;;3.27;66.96
47967;BME280;33733;52.456;13.620;2024-01-15T08:20:25;98892.72;;;3.55;66.34
47967;BME280;33733;52.456;13.620;2024-01-15T08:22:53;98886.59;;;3.43;66.22
47967;BME280;33733;52.456;13.620;2024-01-15T08:25:20;98887.66;;;3.15;66.42
47967;BME280;33733;52.456;13.620;2024-01-15T08:27:47;98889.03;;;3.08;67.47
47967;BME280;33733;52.456;13.620;2024-01-15T08:30:15;98892.03;;;3.27;67.15
47967;BME280;33733;52.456;13.620;2024-01-15T08:32:42;98893.94;;;3.13;67.22
47967;BME280;33733;52.456;13.620;2024-01-15T08:35:10;98902.47;;;3.02;67.14
47967;BME280;33733;52.456;13.620;2024-01-15T08:37:38;98889.56;;;3.01;67.64
47967;BME280;33733;52.456;13.620;2024-01-15T08:40:06;98895.16;;;3.07;67.75
47967;BME280;33733;52.456;13.620;2024-01-15T08:42:33;98894.31;;;3.19;67.21
47967;BME280;33733;52.456;13.620;2024-01-15T08:45:00;98893.91;;;2.88;67.67
47967;BME280;33733;52.456;13.620;2024-01-15T08:47:28;98884.56;;;2.98;67.45
47967;BME280;33733;52.456;13.620;2024-01-15T08:49:55;98888.94;;;3.10;67.35
47967;BME280;33733;52.456;13.620;2024-01-15T08:52:23;98888.28;;;3.19;67.37
47967;BME280;33733;52.456;13.620;2024-01-15T08:54:50;98912.16;;;3.13;67.57
47967;BME280;33733;52.456;13.620;2024-01-15T08:57:17;98903.81;;;3.46;66.75
47967;BME280;33733;52.456;13.620;2024-01-15T08:59:45;98904.44;;;3.37;66.87
47967;BME280;33733;52.456;13.620;2024-01-15T09:02:12;98912.47;;;3.21;67.23
47967;BME280;33733;52.456;13.620;2024-01-15T09:04:40;98906.81;;;3.27;67.30
47967;BME280;33733;52.456;13.620;2024-01-15T09:07:08;98900.19;;;2.85;67.40
47967;BME280;33733;52.456;13.620;2024-01-15T09:09:35;98908.09;;;2.96;67.89
47967;BME280;33733;52.456;13.620;2024-01-15T09:12:03;98911.94;;;3.16;67.38
47967;BME280;33733;52.456;13.620;2024-01-15T09:14:30;98924.22;;;2.89;68.08
47967;BME280;33733;52.456;13.620;2024-01-15T09:17:06;98926.72;;;3.15;67.73
47967;BME280;33733;52.456;13.620;2024-01-15T09:19:33;98928.31;;;3.18;67.64
47967;BME280;33733;52.456;13.620;2024-01-15T09:22:00;98923.72;;;3.21;67.52
47967;BME280;33733;52.456;13.620;2024-01-15T09:24:27;98925.28;;;3.24;67.40
47967;BME280;33733;52.456;13.620;2024-01-15T09:26:55;98930.25;;;3.27;67.65
47967;BME280;33733;52.456;13.620;2024-01-15T09:29:23;98929.56;;;3.38;67.08
47967;BME280;33733;52.456;13.620;2024-01-15T09:31:51;98940.28;;;3.08;67.53
47967;BME280;33733;52.456;13.620;2024-01-15T09:34:19;98953.28;;;3.08;68.08
47967;BME280;33733;52.456;13.620;2024-01-15T09:36:46;98947.56;;;3.28;67.92
47967;BME280;33733;52.456;13.620;2024-01-15T09:39:16;98942.25;;;3.17;67.69
47967;BME280;33733;52.456;13.620;2024-01-15T09:41:43;98950.06;;;3.17;67.40
47967;BME280;33733;52.456;13.620;2024-01-15T09:44:10;98933.09;;;3.24;67.64
47967;BME280;33733;52.456;13.620;2024-01-15T09:46:39;98954.31;;;3.56;67.80
47967;BME280;33733;52.456;13.620;2024-01-15T09:49:07;98943.50;;;3.49;67.13
47967;BME280;33733;52.456;13.620;2024-01-15T09:51:35;98947.88;;;3.61;67.01
47967;BME280;33733;52.456;13.620;2024-01-15T09:54:03;98946.41;;;3.70;66.17
47967;BME280;33733;52.456;13.620;2024-01-15T09:56:31;98943.28;;;3.40;66.78
47967;BME280;33733;52.456;13.620;2024-01-15T09:58:58;98932.03;;;3.39;67.92
47967;BME280;33733;52.456;13.620;2024-01-15T10:01:27;98930.38;;;3.13;67.98
47967;BME280;33733;52.456;13.620;2024-01-15T10:03:55;98936.00;;;2.94;68.64
47967;BME280;33733;52.456;13.620;2024-01-15T10:06:22;98922.34;;;3.28;68.20
47967;BME280;33733;52.456;13.620;2024-01-15T10:08:51;98927.03;;;3.11;67.70
47967;BME280;33733;52.456;13.620;2024-01-15T10:11:18;98924.56;;;3.09;68.31
47967;BME280;33733;52.456;13.620;2024-01-15T10:13:46;98921.63;;;3.01;68.13
47967;BME280;33733;52.456;13.620;2024-01-15T10:16:16;98922.56;;;3.25;68.71
47967;BME280;33733;52.456;13.620;2024-01-15T10:18:43;98932.41;;;3.58;67.51
47967;BME280;33733;52.456;13.620;2024-01-15T10:21:11;98918.06;;;3.27;67.55
47967;BME280;33733;52.456;13.620;2024-01-15T10:23:38;98922.56;;;3.25;67.38
47967;BME280;33733;52.456;13.620;2024-01-15T10:26:05;98934.53;;;3.41;67.76
47967;BME280;33733;52.456;13.620;2024-01-15T10:28:33;98925.88;;;3.40;67.57
47967;BME280;33733;52.456;13.620;2024-01-15T10:31:00;98927.88;;;3.24;67.79
47967;BME280;33733;52.456;13.620;2024-01-15T10:33:28;98919.13;;;3.12;67.94
47967;BME280;33733;52.456;13.620;2024-01-15T10:35:58;98907.03;;;3.24;67.98
47967;BME280;33733;52.456;13.620;2024-01-15T10:38:26;98914.88;;;3.73;66.82
47967;BME280;33733;52.456;13.620;2024-01-15T10:40:55;98914.41;;;3.43;67.00
47967;BME280;33733;52.456;13.620;2024-01-15T10:43:23;98905.56;;;3.33;66.99
47967;BME280;33733;52.456;13.620;2024-01-15T10:45:55;98909.84;;;3.34;67.42
47967;BME280;33733;52.456;13.620;2024-01-15T10:48:22;98902.97;;;3.20;67.18
47967;BME280;33733;52.456;13.620;2024-01-15T10:50:50;98896.72;;;3.35;67.71
47967;BME280;33733;52.456;13.620;2024-01-15T10:53:17;98908.31;;;3.18;67.07
47967;BME280;33733;52.456;13.620;2024-01-15T10:55:46;98902.66;;;3.37;67.68
47967;BME280;33733;52.456;13.620;2024-01-15T10:58:14;98911.63;;;3.33;66.98
47967;BME280;33733;52.456;13.620;2024-01-15T11:00:42;98916.31;;;3.41;67.34
47967;BME280;33733;52.456;13.620;2024-01-15T11:03:10;98902.72;;;3.61;66.63
47967;BME280;33733;52.456;13.620;2024-01-15T11:05:42;98900.53;;;3.55;66.53
47967;BME280;33733;52.456;13.620;2024-01-15T11:08:10;98916.25;;;4.02;65.78
47967;BME280;33733;52.456;13.620;2024-01-15T11:10:41;98908.25;;;3.93;65.04
47967;BME280;33733;52.456;13.620;2024-01-15T11:18:31;98911.22;;;4.12;64.69
47967;BME280;33733;52.456;13.620;2024-01-15T11:23:54;98914.00;;;4.21;64.39
47967;BME280;33733;52.456;13.620;2024-01-15T11:29:05;98909.06;;;4.64;62.90
47967;BME280;33733;52.456;13.620;2024-01-15T11:34:08;98908.66;;;3.99;63.90
47967;BME280;33733;52.456;13.620;2024-01-15T11:41:55;98921.97;;;4.31;63.30
47967;BME280;33733;52.456;13.620;2024-01-15T11:44:22;98931.53;;;4.19;64.11
47967;BME280;33733;52.456;13.620;2024-01-15T11:47:10;98920.94;;;4.34;63.77
47967;BME280;33733;52.456;13.620;2024-01-15T11:49:58;98928.25;;;4.52;63.44
47967;BME280;33733;52.456;13.620;2024-01-15T11:52:32;98926.59;;;4.28;63.51
47967;BME280;33733;52.456;13.620;2024-01-15T11:55:34;98928.88;;;4.32;63.47
47967;BME280;33733;52.456;13.620;2024-01-15T11:58:07;98930.72;;;4.30;64.68
47967;BME280;33733;52.456;13.620;2024-01-15T12:00:40;98932.13;;;4.23;65.35
47967;BME280;33733;52.456;13.620;2024-01-15T12:03:09;98928.75;;;4.10;65.90
47967;BME280;33733;52.456;13.620;2024-01-15T12:05:37;98931.94;;;3.53;68.06
47967;BME280;33733;52.456;13.620;2024-01-15T12:08:05;98931.72;;;3.44;69.83
47967;BME280;33733;52.456;13.620;2024-01-15T12:10:38;98925.34;;;3.60;69.37
47967;BME280;33733;52.456;13.620;2024-01-15T12:13:11;98934.53;;;3.28;70.75
47967;BME280;33733;52.456;13.620;2024-01-15T12:15:39;98954.22;;;3.57;70.27
47967;BME280;33733;52.456;13.620;2024-01-15T12:18:12;98948.34;;;3.66;70.02
47967;BME280;33733;52.456;13.620;2024-01-15T12:20:40;98944.69;;;3.82;69.34
47967;BME280;33733;52.456;13.620;2024-01-15T12:23:08;98955.44;;;3.77;69.28
47967;BME280;33733;52.456;13.620;2024-01-15T12:25:36;98949.09;;;3.68;68.65
47967;BME280;33733;52.456;13.620;2024-01-15T12:28:05;98949.88;;;3.45;69.18
47967;BME280;33733;52.456;13.620;2024-01-15T12:30:33;98949.31;;;3.65;69.00
47967;BME280;33733;52.456;13.620;2024-01-15T12:33:05;98962.44;;;3.76;68.59
47967;BME280;33733;52.456;13.620;2024-01-15T12:35:33;98952.56;;;3.44;68.73
47967;BME280;33733;52.456;13.620;2024-01-15T12:38:01;98959.00;;;3.51;68.68
47967;BME280;33733;52.456;13.620;2024-01-15T12:40:33;98952.88;;;3.39;68.80
47967;BME280;33733;52.456;13.620;2024-01-15T12:43:02;98951.53;;;3.46;69.04
47967;BME280;33733;52.456;13.620;2024-01-15T12:45:30;98950.88;;;3.68;68.33
47967;BME280;33733;52.456;13.620;2024-01-15T12:47:58;98960.59;;;3.66;68.62
47967;BME280;33733;52.456;13.620;2024-01-15T12:50:25;98951.19;;;3.51;68.85
47967;BME280;33733;52.456;13.620;2024-01-15T12:52:53;98955.97;;;3.69;68.01
47967;BME280;33733;52.456;13.620;2024-01-15T12:55:20;98958.28;;;3.74;67.64
47967;BME280;33733;52.456;13.620;2024-01-15T12:57:48;98960.91;;;3.61;68.12
47967;BME280;33733;52.456;13.620;2024-01-15T13:00:17;98964.44;;;3.60;68.64
47967;BME280;33733;52.456;13.620;2024-01-15T13:02:44;98980.59;;;3.53;69.49
47967;BME280;33733;52.456;13.620;2024-01-15T13:05:12;98978.63;;;3.44;70.15
47967;BME280;33733;52.456;13.620;2024-01-15T13:07:41;98982.81;;;3.46;70.70
47967;BME280;33733;52.456;13.620;2024-01-15T13:10:09;98986.34;;;3.58;70.24
47967;BME280;33733;52.456;13.620;2024-01-15T13:12:37;98981.94;;;3.71;70.03
47967;BME280;33733;52.456;13.620;2024-01-15T13:15:06;98998.19;;;3.74;69.71
47967;BME280;33733;52.456;13.620;2024-01-15T13:17:39;98991.34;;;3.36;69.29
47967;BME280;33733;52.456;13.620;2024-01-15T13:20:11;98995.19;;;3.43;70.54
47967;BME280;33733;52.456;13.620;2024-01-15T13:22:39;98994.16;;;3.45;69.77